Time;durP1;ratioP1;P1;durP2;ratioP2;P2;SDS_P1;SDS_P2;PMS_P1;PMS_P2;Temp;Humidity;BMP_temperature;BMP_pressure;BME280_temperature;BME280_humidity;BME280_pressure;Samples;Min_cycle;Max_cycle;Signal;HPM_P1;HPM_P2
2022/07/23 00:00:44;;;;;;;;;;;;;;;21.44;59.74;100309.95;1416490;91;20657;-81
2022/07/23 00:03:13;;;;;;;;;;;;;;;21.42;59.77;100312.03;1419026;89;20313;-81
2022/07/23 00:05:41;;;;;;;;;;;;;;;21.36;59.68;100318.27;1425736;91;21575;-82
2022/07/23 00:08:07;;;;;;;;;;;;;;;21.33;59.11;100316.84;1421101;91;20333;-82
2022/07/23 00:10:34;;;;;;;;;;;;;;;21.30;58.48;100315.94;1421771;90;20647;-81
2022/07/23 00:13:00;;;;;;;;;;;;;;;21.28;58.16;100318.55;1417034;92;20311;-81
2022/07/23 00:15:25;;;;;;;;;;;;;;;21.27;58.62;100318.26;1419644;91;20296;-81
2022/07/23 00:17:51;;;;;;;;;;;;;;;21.25;58.89;100313.61;1408061;91;20340;-81
2022/07/23 00:20:19;;;;;;;;;;;;;;;21.24;58.91;100318.70;1421633;90;20378;-81
2022/07/23 00:22:50;;;;;;;;;;;;;;;21.24;59.93;100322.73;1427780;90;20391;-81
2022/07/23 00:25:16;;;;;;;;;;;;;;;21.19;60.53;100320.69;1416891;92;21697;-81
2022/07/23 00:27:42;;;;;;;;;;;;;;;21.15;60.71;100321.66;1425062;90;20859;-81
2022/07/23 00:30:10;;;;;;;;;;;;;;;21.12;60.28;100318.06;1427713;90;20307;-81
2022/07/23 00:32:50;;;;;;;;;;;;;;;21.08;60.69;100322.75;1349865;90;20870;-81
2022/07/23 00:35:20;;;;;;;;;;;;;;;21.00;60.54;100325.17;1507703;90;20266;-81
2022/07/23 00:37:46;;;;;;;;;;;;;;;20.90;61.07;100327.55;1361763;91;20373;-81
2022/07/23 00:40:14;;;;;;;;;;;;;;;20.80;61.14;100326.69;1506398;91;20420;-81
2022/07/23 00:42:40;;;;;;;;;;;;;;;20.75;61.31;100331.07;1379477;91;20337;-81
2022/07/23 00:45:07;;;;;;;;;;;;;;;20.65;61.58;100331.00;1367400;91;20243;-81
2022/07/23 00:47:33;;;;;;;;;;;;;;;20.60;61.87;100334.88;1504016;91;20251;-81
2022/07/23 00:49:59;;;;;;;;;;;;;;;20.55;60.57;100330.66;1507202;91;20254;-81
2022/07/23 00:52:25;;;;;;;;;;;;;;;20.54;61.67;100339.75;1507226;91;20248;-81
2022/07/23 00:54:51;;;;;;;;;;;;;;;20.51;60.57;100335.63;1505768;91;20305;-81
2022/07/23 00:57:17;;;;;;;;;;;;;;;20.50;62.44;100330.45;1397035;91;20291;-81
2022/07/23 00:59:44;;;;;;;;;;;;;;;20.47;62.76;100330.88;1491484;91;20229;-81
2022/07/23 01:02:10;;;;;;;;;;;;;;;20.47;61.98;100330.88;1398915;91;20223;-81
2022/07/23 01:04:36;;;;;;;;;;;;;;;20.45;62.98;100331.60;1493187;90;20330;-81
2022/07/23 01:07:02;;;;;;;;;;;;;;;20.42;63.87;100330.69;1430476;91;20438;-81
2022/07/23 01:09:31;;;;;;;;;;;;;;;20.42;63.17;100326.13;1424551;91;20811;-81
2022/07/23 01:11:57;;;;;;;;;;;;;;;20.41;62.41;100322.33;1409721;91;20335;-82
2022/07/23 01:14:23;;;;;;;;;;;;;;;20.40;62.10;100319.31;1427852;91;20470;-81
2022/07/23 01:16:50;;;;;;;;;;;;;;;20.36;63.46;100320.27;1432476;90;20450;-80
2022/07/23 01:19:17;;;;;;;;;;;;;;;20.34;63.98;100325.55;1427330;91;20310;-80
2022/07/23 01:21:50;;;;;;;;;;;;;;;20.35;62.69;100319.16;1413629;91;20295;-80
2022/07/23 01:24:19;;;;;;;;;;;;;;;20.34;63.16;100317.49;1423060;91;20365;-82
2022/07/23 01:26:47;;;;;;;;;;;;;;;20.35;65.19;100320.50;1490071;91;20371;-82
2022/07/23 01:29:13;;;;;;;;;;;;;;;20.31;64.66;100319.27;1501941;91;20267;-82
2022/07/23 01:31:39;;;;;;;;;;;;;;;20.25;64.80;100308.85;1447758;91;20243;-82
2022/07/23 01:34:06;;;;;;;;;;;;;;;20.23;64.73;100313.64;1356740;91;20844;-83
2022/07/23 01:36:33;;;;;;;;;;;;;;;20.17;65.17;100312.63;1447528;91;20276;-82
2022/07/23 01:38:59;;;;;;;;;;;;;;;20.12;63.89;100317.80;1507165;91;20369;-82
2022/07/23 01:41:26;;;;;;;;;;;;;;;20.13;63.32;100324.82;1355024;91;20279;-82
2022/07/23 01:43:52;;;;;;;;;;;;;;;20.13;64.89;100320.79;1466172;91;20259;-82
2022/07/23 01:46:18;;;;;;;;;;;;;;;20.10;65.25;100316.37;1496253;91;20262;-84
2022/07/23 01:48:44;;;;;;;;;;;;;;;20.04;65.52;100320.73;1433909;90;20472;-82
2022/07/23 01:51:10;;;;;;;;;;;;;;;19.98;66.10;100318.89;1421149;90;20569;-82
2022/07/23 01:53:37;;;;;;;;;;;;;;;19.93;65.70;100321.38;1423190;91;20409;-82
2022/07/23 01:56:05;;;;;;;;;;;;;;;19.90;65.52;100327.17;1431789;90;20413;-82
2022/07/23 01:58:32;;;;;;;;;;;;;;;19.83;66.51;100321.31;1429906;90;20301;-82
2022/07/23 02:00:58;;;;;;;;;;;;;;;19.78;65.69;100318.42;1428266;90;20317;-82
2022/07/23 02:03:24;;;;;;;;;;;;;;;19.75;66.22;100308.63;1423900;91;21773;-81
2022/07/23 02:05:51;;;;;;;;;;;;;;;19.73;66.90;100314.20;1423230;91;20423;-81
2022/07/23 02:08:24;;;;;;;;;;;;;;;19.71;66.85;100313.61;1419535;91;20439;-81
2022/07/23 02:10:51;;;;;;;;;;;;;;;19.67;66.01;100311.02;1413290;91;20919;-81
2022/07/23 02:13:23;;;;;;;;;;;;;;;19.65;66.67;100310.88;1414313;92;21014;-81
2022/07/23 02:15:49;;;;;;;;;;;;;;;19.62;66.30;100306.75;1410451;92;20392;-81
2022/07/23 02:18:15;;;;;;;;;;;;;;;19.61;66.78;100307.80;1430096;92;20295;-81
2022/07/23 02:20:42;;;;;;;;;;;;;;;19.61;67.88;100307.28;1426781;91;20362;-81
2022/07/23 02:23:08;;;;;;;;;;;;;;;19.61;66.84;100305.94;1506471;91;20351;-81
2022/07/23 02:25:35;;;;;;;;;;;;;;;19.61;67.33;100308.62;1507021;91;21257;-82
2022/07/23 02:28:00;;;;;;;;;;;;;;;19.59;67.12;100299.13;1503422;90;20258;-81
2022/07/23 02:30:26;;;;;;;;;;;;;;;19.56;66.92;100302.23;1503014;90;20342;-81
2022/07/23 02:32:52;;;;;;;;;;;;;;;19.55;67.70;100300.59;1507091;91;20268;-82
2022/07/23 02:35:18;;;;;;;;;;;;;;;19.52;67.66;100305.03;1507045;91;20336;-82
2022/07/23 02:37:50;;;;;;;;;;;;;;;19.52;68.54;100306.38;1391942;90;20286;-82
2022/07/23 02:40:18;;;;;;;;;;;;;;;19.51;68.25;100300.71;1507907;90;20308;-82
2022/07/23 02:42:44;;;;;;;;;;;;;;;19.47;68.22;100308.86;1425381;91;20266;-82
2022/07/23 02:45:14;;;;;;;;;;;;;;;19.44;67.59;100306.07;1499702;92;20444;-82
2022/07/23 02:47:41;;;;;;;;;;;;;;;19.42;69.15;100308.65;1366325;92;20259;-82
2022/07/23 02:50:07;;;;;;;;;;;;;;;19.40;68.48;100306.19;1494536;91;20247;-83
2022/07/23 02:52:34;;;;;;;;;;;;;;;19.36;68.89;100301.77;1507020;91;20284;-84
2022/07/23 02:55:00;;;;;;;;;;;;;;;19.33;69.48;100311.58;1516355;90;20242;-83
2022/07/23 02:57:25;;;;;;;;;;;;;;;19.28;69.24;100308.68;1395269;90;20236;-83
2022/07/23 02:59:52;;;;;;;;;;;;;;;19.23;68.29;100313.02;1502152;91;20292;-83
2022/07/23 03:02:19;;;;;;;;;;;;;;;19.17;68.48;100322.72;1413108;91;20291;-83
2022/07/23 03:04:49;;;;;;;;;;;;;;;19.11;68.61;100324.36;1360560;91;20285;-80
2022/07/23 03:07:24;;;;;;;;;;;;;;;19.08;67.90;100319.41;1469238;91;20265;-80
2022/07/23 03:09:50;;;;;;;;;;;;;;;19.04;69.21;100322.70;1506961;91;20346;-80
2022/07/23 03:12:18;;;;;;;;;;;;;;;19.02;69.29;100318.90;1507096;91;20277;-80
2022/07/23 03:14:44;;;;;;;;;;;;;;;19.01;68.72;100317.75;1507100;91;20389;-80
2022/07/23 03:17:17;;;;;;;;;;;;;;;18.99;69.57;100322.48;1413962;91;20351;-80
2022/07/23 03:19:44;;;;;;;;;;;;;;;18.93;69.25;100323.64;1506779;91;20363;-81
2022/07/23 03:22:10;;;;;;;;;;;;;;;18.91;68.73;100327.55;1506037;91;21265;-80
2022/07/23 03:24:54;;;;;;;;;;;;;;;18.90;68.13;100326.73;1507334;91;20261;-80
2022/07/23 03:27:23;;;;;;;;;;;;;;;18.88;69.37;100331.46;1507523;91;20360;-83
2022/07/23 03:29:52;;;;;;;;;;;;;;;18.84;70.20;100321.34;1350216;91;20814;-83
2022/07/23 03:32:21;;;;;;;;;;;;;;;18.82;70.26;100327.44;1485567;91;20839;-83
2022/07/23 03:34:47;;;;;;;;;;;;;;;18.80;71.11;100323.61;1503652;91;20285;-83
2022/07/23 03:37:13;;;;;;;;;;;;;;;18.81;70.08;100323.91;1503787;91;20367;-83
2022/07/23 03:39:39;;;;;;;;;;;;;;;18.86;70.37;100330.83;1502315;91;20313;-83
2022/07/23 03:42:06;;;;;;;;;;;;;;;18.88;70.25;100326.62;1474007;91;20306;-81
2022/07/23 03:44:32;;;;;;;;;;;;;;;18.91;70.33;100326.20;1480889;91;20797;-81
2022/07/23 03:46:58;;;;;;;;;;;;;;;18.92;70.43;100336.72;1506278;91;20262;-81
2022/07/23 03:49:24;;;;;;;;;;;;;;;18.97;70.00;100337.98;1434718;91;20284;-81
2022/07/23 03:51:50;;;;;;;;;;;;;;;19.04;70.08;100332.09;1504803;91;20244;-83
2022/07/23 03:54:16;;;;;;;;;;;;;;;19.13;69.42;100329.50;1504254;92;20351;-84
2022/07/23 03:56:43;;;;;;;;;;;;;;;19.23;69.17;100328.59;1447809;90;20306;-84
2022/07/23 03:59:09;;;;;;;;;;;;;;;19.33;68.83;100325.48;1507422;91;20277;-83
2022/07/23 04:01:35;;;;;;;;;;;;;;;19.45;68.48;100329.70;1507147;91;20438;-83
2022/07/23 04:04:05;;;;;;;;;;;;;;;19.56;68.38;100331.75;1356557;91;20373;-83
2022/07/23 04:06:32;;;;;;;;;;;;;;;19.66;67.81;100326.83;1505042;91;20379;-81
2022/07/23 04:08:58;;;;;;;;;;;;;;;19.78;67.18;100328.34;1492217;91;20329;-82
2022/07/23 04:11:24;;;;;;;;;;;;;;;19.89;67.15;100330.39;1506252;91;20236;-82
2022/07/23 04:13:50;;;;;;;;;;;;;;;19.96;67.04;100331.70;1468083;91;20321;-83
2022/07/23 04:16:17;;;;;;;;;;;;;;;20.03;66.44;100332.52;1475827;91;20259;-82
2022/07/23 04:18:44;;;;;;;;;;;;;;;20.08;66.64;100334.03;1423380;91;20325;-82
2022/07/23 04:21:12;;;;;;;;;;;;;;;20.15;66.07;100333.50;1502151;92;20356;-82
2022/07/23 04:23:44;;;;;;;;;;;;;;;20.23;65.49;100329.23;1501946;91;21154;-82
2022/07/23 04:26:10;;;;;;;;;;;;;;;20.32;65.43;100336.53;1506116;91;20290;-82
2022/07/23 04:28:36;;;;;;;;;;;;;;;20.40;65.70;100330.92;1506548;91;20255;-82
2022/07/23 04:31:02;;;;;;;;;;;;;;;20.46;65.60;100334.09;1435980;91;20292;-83
2022/07/23 04:33:28;;;;;;;;;;;;;;;20.54;65.59;100331.68;1506298;91;20259;-83
2022/07/23 04:35:54;;;;;;;;;;;;;;;20.63;65.29;100333.10;1498144;91;20857;-83
2022/07/23 04:38:20;;;;;;;;;;;;;;;20.73;64.62;100332.09;1507485;91;20254;-83
2022/07/23 04:40:46;;;;;;;;;;;;;;;20.80;64.18;100327.19;1505913;91;20351;-83
2022/07/23 04:43:12;;;;;;;;;;;;;;;20.91;64.12;100325.97;1452605;91;20252;-82
2022/07/23 04:45:38;;;;;;;;;;;;;;;21.00;63.55;100316.28;1506255;91;20292;-83
2022/07/23 04:48:04;;;;;;;;;;;;;;;21.09;63.70;100323.04;1410470;91;20284;-82
2022/07/23 04:50:30;;;;;;;;;;;;;;;21.17;63.12;100322.25;1471048;93;20953;-82
2022/07/23 04:53:02;;;;;;;;;;;;;;;21.25;62.74;100325.72;1454594;95;20249;-82
2022/07/23 04:55:28;;;;;;;;;;;;;;;21.32;62.77;100323.28;1414441;94;20300;-81
2022/07/23 04:57:54;;;;;;;;;;;;;;;21.39;62.47;100323.25;1323070;95;20295;-81
2022/07/23 05:00:22;;;;;;;;;;;;;;;21.48;63.07;100323.26;1454963;95;20234;-81
2022/07/23 05:02:48;;;;;;;;;;;;;;;21.60;61.46;100324.16;1426851;94;20857;-81
2022/07/23 05:05:14;;;;;;;;;;;;;;;21.68;60.82;100325.75;1403676;93;20363;-81
2022/07/23 05:07:40;;;;;;;;;;;;;;;21.74;59.96;100327.55;1405213;93;20305;-81
2022/07/23 05:10:07;;;;;;;;;;;;;;;21.83;60.23;100332.12;1402757;93;20295;-81
2022/07/23 05:12:33;;;;;;;;;;;;;;;21.91;59.73;100326.97;1401783;93;20313;-81
2022/07/23 05:15:03;;;;;;;;;;;;;;;21.99;59.39;100324.80;1367636;95;20292;-81
2022/07/23 05:17:29;;;;;;;;;;;;;;;22.05;58.74;100327.93;1420062;91;20410;-83
2022/07/23 05:19:57;;;;;;;;;;;;;;;22.15;58.88;100327.92;1410230;91;21559;-82
2022/07/23 05:22:24;;;;;;;;;;;;;;;22.24;58.08;100325.23;1428184;91;20328;-83
2022/07/23 05:24:52;;;;;;;;;;;;;;;22.31;58.01;100331.38;1422874;91;20385;-84
2022/07/23 05:27:20;;;;;;;;;;;;;;;22.41;58.15;100323.59;1425052;91;20490;-84
2022/07/23 05:29:50;;;;;;;;;;;;;;;22.48;56.70;100328.35;1420180;91;20403;-82
2022/07/23 05:32:18;;;;;;;;;;;;;;;22.64;57.42;100330.09;1423639;91;20317;-82
2022/07/23 05:34:44;;;;;;;;;;;;;;;22.77;56.75;100329.92;1424981;91;20426;-82
2022/07/23 05:37:10;;;;;;;;;;;;;;;22.90;56.75;100341.87;1425718;91;20327;-83
2022/07/23 05:39:36;;;;;;;;;;;;;;;23.06;56.80;100344.98;1420324;91;20335;-82
2022/07/23 05:42:03;;;;;;;;;;;;;;;23.17;55.89;100333.38;1423211;91;20356;-82
2022/07/23 05:44:36;;;;;;;;;;;;;;;23.28;55.11;100342.02;1423890;91;20302;-82
2022/07/23 05:47:02;;;;;;;;;;;;;;;23.37;55.05;100346.02;1423308;91;20967;-82
2022/07/23 05:49:29;;;;;;;;;;;;;;;23.51;55.24;100352.02;1431786;91;20958;-82
2022/07/23 05:51:55;;;;;;;;;;;;;;;23.63;54.95;100348.78;1423435;91;20462;-83
2022/07/23 05:54:21;;;;;;;;;;;;;;;23.79;54.29;100349.14;1419717;91;20338;-83
2022/07/23 05:56:50;;;;;;;;;;;;;;;23.86;53.40;100347.97;1397884;92;20289;-82
2022/07/23 05:59:18;;;;;;;;;;;;;;;23.98;54.16;100357.94;1425840;91;20423;-82
2022/07/23 06:01:45;;;;;;;;;;;;;;;24.06;53.48;100352.17;1426043;91;21075;-81
2022/07/23 06:04:11;;;;;;;;;;;;;;;24.23;53.70;100355.77;1423949;91;20288;-82
2022/07/23 06:06:38;;;;;;;;;;;;;;;24.32;53.13;100357.03;1424142;91;20370;-82
2022/07/23 06:09:04;;;;;;;;;;;;;;;24.42;52.40;100353.70;1424794;91;20272;-83
2022/07/23 06:11:30;;;;;;;;;;;;;;;24.52;52.52;100343.12;1428321;91;20365;-83
2022/07/23 06:13:56;;;;;;;;;;;;;;;24.64;51.94;100344.41;1429251;91;20998;-83
2022/07/23 06:16:22;;;;;;;;;;;;;;;24.68;51.72;100341.50;1427079;91;20860;-83
2022/07/23 06:18:48;;;;;;;;;;;;;;;24.82;51.39;100342.56;1431364;91;20848;-83
2022/07/23 06:21:15;;;;;;;;;;;;;;;24.95;50.98;100338.20;1401658;91;20421;-83
2022/07/23 06:23:41;;;;;;;;;;;;;;;25.10;51.02;100342.51;1432969;91;20364;-83
2022/07/23 06:26:07;;;;;;;;;;;;;;;25.21;50.43;100338.93;1425380;91;20280;-83
2022/07/23 06:28:33;;;;;;;;;;;;;;;25.36;50.79;100336.18;1421687;91;20363;-83
2022/07/23 06:30:59;;;;;;;;;;;;;;;25.47;50.10;100337.16;1428014;91;20328;-83
2022/07/23 06:33:24;;;;;;;;;;;;;;;25.61;49.43;100334.39;1425989;91;20351;-83
2022/07/23 06:35:50;;;;;;;;;;;;;;;25.72;47.94;100338.04;1415042;91;20521;-83
2022/07/23 06:38:18;;;;;;;;;;;;;;;25.87;48.63;100338.30;1417062;91;20321;-84
2022/07/23 06:40:44;;;;;;;;;;;;;;;26.01;48.45;100334.66;1428728;91;20416;-83
2022/07/23 06:43:14;;;;;;;;;;;;;;;26.14;48.91;100332.12;1430733;91;20350;-83
2022/07/23 06:45:40;;;;;;;;;;;;;;;26.32;49.14;100337.20;1410442;91;20419;-83
2022/07/23 06:48:07;;;;;;;;;;;;;;;26.46;47.99;100328.14;1425697;91;20444;-83
2022/07/23 06:50:34;;;;;;;;;;;;;;;26.55;47.13;100330.16;1426711;91;20342;-83
2022/07/23 06:53:00;;;;;;;;;;;;;;;26.66;46.93;100331.63;1392440;93;20532;-83
2022/07/23 06:55:26;;;;;;;;;;;;;;;26.78;46.19;100330.92;1382453;94;20343;-84
2022/07/23 06:57:52;;;;;;;;;;;;;;;26.94;45.39;100335.97;1382568;94;20365;-82
2022/07/23 07:00:20;;;;;;;;;;;;;;;26.98;44.82;100331.64;1384785;94;20470;-82
2022/07/23 07:02:46;;;;;;;;;;;;;;;27.12;44.55;100338.28;1382882;94;20865;-81
2022/07/23 07:05:13;;;;;;;;;;;;;;;27.27;44.85;100335.44;1387313;94;20380;-81
2022/07/23 07:07:40;;;;;;;;;;;;;;;27.41;43.49;100324.40;1430019;91;20677;-81
2022/07/23 07:10:07;;;;;;;;;;;;;;;27.58;44.16;100324.23;1428336;91;20936;-81
2022/07/23 07:12:33;;;;;;;;;;;;;;;27.76;44.34;100322.42;1426271;91;20426;-81
2022/07/23 07:15:00;;;;;;;;;;;;;;;27.95;44.13;100320.11;1428594;91;20372;-81
2022/07/23 07:17:28;;;;;;;;;;;;;;;28.13;43.65;100320.17;1427800;91;20328;-81
2022/07/23 07:19:54;;;;;;;;;;;;;;;28.31;43.88;100329.22;1420034;91;20378;-82
2022/07/23 07:22:22;;;;;;;;;;;;;;;28.49;43.54;100324.40;1426710;91;20344;-86
2022/07/23 07:24:48;;;;;;;;;;;;;;;28.64;42.54;100328.50;1425261;91;20399;-90
2022/07/23 07:27:14;;;;;;;;;;;;;;;28.76;41.96;100326.33;1424754;91;20323;-91
2022/07/23 07:29:40;;;;;;;;;;;;;;;28.78;40.09;100326.89;1427780;91;20472;-90
2022/07/23 07:32:08;;;;;;;;;;;;;;;28.82;39.99;100318.17;1427083;91;20328;-90
2022/07/23 07:34:35;;;;;;;;;;;;;;;28.88;39.47;100319.80;1423920;91;20351;-90
2022/07/23 07:37:04;;;;;;;;;;;;;;;29.02;40.69;100326.34;1426980;91;20835;-90
2022/07/23 07:39:30;;;;;;;;;;;;;;;29.04;39.18;100326.93;1430635;91;20343;-90
2022/07/23 07:41:56;;;;;;;;;;;;;;;29.26;41.10;100335.34;1426808;91;20298;-86
2022/07/23 07:44:23;;;;;;;;;;;;;;;29.41;41.12;100333.98;1426494;91;20313;-86
2022/07/23 07:46:52;;;;;;;;;;;;;;;29.58;40.54;100323.59;1428172;91;20323;-86
2022/07/23 07:49:19;;;;;;;;;;;;;;;29.77;40.56;100323.02;1426834;91;20333;-86
2022/07/23 07:51:45;;;;;;;;;;;;;;;29.94;40.11;100322.68;1409309;91;20398;-86
2022/07/23 07:54:13;;;;;;;;;;;;;;;29.96;38.74;100324.04;1429703;91;20380;-86
2022/07/23 07:56:38;;;;;;;;;;;;;;;30.04;37.82;100325.38;1430630;91;20425;-86
2022/07/23 07:59:04;;;;;;;;;;;;;;;30.22;39.87;100325.32;1428090;91;20291;-87
2022/07/23 08:01:30;;;;;;;;;;;;;;;30.37;39.92;100326.59;1425445;91;20321;-86
2022/07/23 08:03:56;;;;;;;;;;;;;;;30.52;39.05;100319.66;1427242;91;20406;-86
2022/07/23 08:06:22;;;;;;;;;;;;;;;30.64;38.77;100322.59;1409902;91;20302;-86
2022/07/23 08:08:48;;;;;;;;;;;;;;;30.67;38.03;100323.39;1429841;91;20405;-87
2022/07/23 08:11:15;;;;;;;;;;;;;;;30.74;37.77;100323.34;1420246;90;21598;-88
2022/07/23 08:13:41;;;;;;;;;;;;;;;30.71;36.83;100323.10;1422505;91;20399;-89
2022/07/23 08:16:07;;;;;;;;;;;;;;;30.91;37.82;100318.87;1427728;91;20350;-89
2022/07/23 08:18:32;;;;;;;;;;;;;;;30.95;36.80;100317.19;1433478;91;20351;-88
2022/07/23 08:20:58;;;;;;;;;;;;;;;31.11;37.60;100319.81;1424900;91;20444;-88
2022/07/23 08:23:24;;;;;;;;;;;;;;;31.27;37.99;100318.55;1427823;91;20382;-88
2022/07/23 08:25:50;;;;;;;;;;;;;;;31.45;36.64;100316.50;1426584;91;20398;-88
2022/07/23 08:28:16;;;;;;;;;;;;;;;31.66;38.05;100310.80;1423430;91;20364;-88
2022/07/23 08:30:48;;;;;;;;;;;;;;;31.83;37.92;100312.51;1428404;91;20313;-88
2022/07/23 08:33:16;;;;;;;;;;;;;;;31.95;36.46;100308.57;1392935;93;20424;-87
2022/07/23 08:35:46;;;;;;;;;;;;;;;32.11;36.47;100309.98;1384860;94;20290;-88
2022/07/23 08:38:14;;;;;;;;;;;;;;;32.20;36.70;100306.87;1420200;91;20328;-88
2022/07/23 08:40:44;;;;;;;;;;;;;;;32.33;36.01;100306.11;1482487;91;20317;-87
2022/07/23 08:43:13;;;;;;;;;;;;;;;32.46;35.36;100307.34;1423110;91;20317;-88
2022/07/23 08:45:42;;;;;;;;;;;;;;;32.66;35.50;100310.89;1428744;91;20714;-87
2022/07/23 08:48:12;;;;;;;;;;;;;;;32.78;34.75;100304.39;1429589;91;20303;-88
2022/07/23 08:50:42;;;;;;;;;;;;;;;32.89;34.28;100296.81;1430595;91;21227;-88
2022/07/23 08:53:08;;;;;;;;;;;;;;;33.07;34.76;100294.60;1407383;91;20310;-88
2022/07/23 08:55:34;;;;;;;;;;;;;;;33.20;31.01;100295.73;1432347;91;20894;-87
2022/07/23 08:58:02;;;;;;;;;;;;;;;33.30;33.40;100292.00;1424519;90;20368;-88
2022/07/23 09:00:29;;;;;;;;;;;;;;;33.38;30.99;100291.31;1429663;91;20479;-88
2022/07/23 09:02:55;;;;;;;;;;;;;;;33.49;33.00;100291.34;1426232;91;20366;-88
2022/07/23 09:05:21;;;;;;;;;;;;;;;33.56;31.47;100286.30;1423599;91;20365;-88
2022/07/23 09:08:11;;;;;;;;;;;;;;;33.70;32.05;100283.00;1414730;92;20296;-89
2022/07/23 09:10:47;;;;;;;;;;;;;;;33.87;32.17;100285.69;1411848;92;20355;-88
2022/07/23 09:13:37;;;;;;;;;;;;;;;33.83;28.72;100284.66;1422993;92;20355;-88
2022/07/23 09:16:07;;;;;;;;;;;;;;;33.90;28.66;100283.13;1383382;94;20401;-88
2022/07/23 09:18:44;;;;;;;;;;;;;;;34.02;27.99;100278.48;1379908;94;20328;-88
2022/07/23 09:21:14;;;;;;;;;;;;;;;34.11;27.93;100275.28;1376923;94;20316;-88
2022/07/23 09:23:47;;;;;;;;;;;;;;;34.08;27.45;100271.78;1374596;94;21803;-88
2022/07/23 09:26:22;;;;;;;;;;;;;;;34.14;27.55;100264.25;1399326;93;20312;-89
2022/07/23 09:28:54;;;;;;;;;;;;;;;34.27;27.18;100262.56;1396810;94;20426;-88
2022/07/23 09:31:21;;;;;;;;;;;;;;;34.32;27.51;100263.27;1384156;94;20653;-88
2022/07/23 09:33:47;;;;;;;;;;;;;;;34.41;28.07;100259.78;1380276;94;20522;-89
2022/07/23 09:36:13;;;;;;;;;;;;;;;34.52;28.91;100259.78;1388002;94;20434;-88
2022/07/23 09:38:52;;;;;;;;;;;;;;;34.62;28.72;100257.40;1379749;94;20368;-88
2022/07/23 09:41:18;;;;;;;;;;;;;;;34.76;28.68;100260.89;1380004;94;20383;-88
2022/07/23 09:43:44;;;;;;;;;;;;;;;34.92;28.87;100261.29;1384252;94;20353;-88
2022/07/23 09:46:19;;;;;;;;;;;;;;;35.06;29.00;100266.73;1389223;94;20330;-85
2022/07/23 09:48:46;;;;;;;;;;;;;;;35.07;27.68;100257.35;1389828;94;20309;-85
2022/07/23 09:51:16;;;;;;;;;;;;;;;35.15;28.02;100257.39;1416747;92;20479;-85
2022/07/23 09:53:41;;;;;;;;;;;;;;;34.83;25.45;100259.06;1387673;92;20448;-85
2022/07/23 09:56:08;;;;;;;;;;;;;;;35.04;26.20;100253.27;1384821;94;20826;-85
2022/07/23 09:58:43;;;;;;;;;;;;;;;35.15;27.12;100256.02;1378794;95;20329;-85
2022/07/23 10:01:04;;;;;;;;;;;;;;;35.33;27.25;100253.34;1385848;94;20250;-86
2022/07/23 10:03:31;;;;;;;;;;;;;;;35.54;28.13;100253.02;1382944;94;20307;-85
2022/07/23 10:05:57;;;;;;;;;;;;;;;35.77;26.16;100249.63;1385743;94;20315;-84
2022/07/23 10:08:23;;;;;;;;;;;;;;;35.84;25.98;100247.77;1382317;94;20268;-85
2022/07/23 10:10:50;;;;;;;;;;;;;;;35.88;24.86;100234.42;1385526;94;20455;-85
2022/07/23 10:14:17;;;;;;;;;;;;;;;36.07;26.37;100234.70;1386467;94;20365;-87
2022/07/23 10:15:54;;;;;;;;;;;;;;;35.96;23.04;100238.88;1358931;94;20335;-85
2022/07/23 10:18:20;;;;;;;;;;;;;;;35.93;24.06;100234.81;1388520;94;20379;-87
2022/07/23 10:20:48;;;;;;;;;;;;;;;36.06;24.85;100229.77;1373116;94;20305;-85
2022/07/23 10:23:24;;;;;;;;;;;;;;;36.14;24.52;100226.78;1405260;93;20424;-91
2022/07/23 10:25:53;;;;;;;;;;;;;;;36.30;24.85;100232.02;1382317;94;20313;-92
2022/07/23 10:28:57;;;;;;;;;;;;;;;36.52;24.88;100230.23;1389184;94;20374;-91
2022/07/23 10:32:04;;;;;;;;;;;;;;;36.59;22.64;100225.84;1383854;94;20366;-88
2022/07/23 10:34:37;;;;;;;;;;;;;;;36.62;24.22;100229.09;1369061;94;20283;-90
2022/07/23 10:37:09;;;;;;;;;;;;;;;36.73;22.60;100227.04;1384568;94;20960;-90
2022/07/23 10:39:36;;;;;;;;;;;;;;;36.85;24.45;100224.17;1380428;94;20409;-90
2022/07/23 10:42:15;;;;;;;;;;;;;;;37.08;24.42;100218.68;1368716;95;20313;-90
2022/07/23 10:44:47;;;;;;;;;;;;;;;37.14;21.92;100211.83;1362575;95;21265;-90
2022/07/23 10:50:19;;;;;;;;;;;;;;;37.23;23.20;100212.63;1370777;94;20293;-89
2022/07/23 10:53:08;;;;;;;;;;;;;;;37.18;22.73;100206.48;1364678;95;20457;-90
2022/07/23 10:55:37;;;;;;;;;;;;;;;37.37;23.91;100208.80;1354676;95;20352;-90
2022/07/23 10:58:05;;;;;;;;;;;;;;;37.55;23.52;100207.61;1379949;94;20519;-90
2022/07/23 11:00:32;;;;;;;;;;;;;;;37.63;23.08;100201.20;1398383;94;20312;-89
2022/07/23 11:03:00;;;;;;;;;;;;;;;37.65;22.73;100199.50;1373256;95;20515;-90
2022/07/23 11:05:46;;;;;;;;;;;;;;;37.69;21.85;100204.56;1376135;95;20381;-90
2022/07/23 11:08:15;;;;;;;;;;;;;;;37.75;23.28;100202.42;1408726;92;20434;-87
2022/07/23 11:10:50;;;;;;;;;;;;;;;37.79;21.87;100201.42;1399159;92;20568;-89
2022/07/23 11:13:26;;;;;;;;;;;;;;;37.71;21.79;100194.81;1409922;92;20430;-87
2022/07/23 11:16:05;;;;;;;;;;;;;;;37.69;21.52;100188.84;1406329;92;20324;-88
2022/07/23 11:18:44;;;;;;;;;;;;;;;37.56;21.13;100185.75;1408725;92;20482;-88
2022/07/23 11:21:26;;;;;;;;;;;;;;;37.76;22.76;100187.49;1397944;92;20437;-88
2022/07/23 11:24:06;;;;;;;;;;;;;;;37.91;22.88;100181.34;1393651;92;20429;-83
2022/07/23 11:26:44;;;;;;;;;;;;;;;38.13;22.20;100178.84;1403936;92;20295;-91
2022/07/23 11:29:33;;;;;;;;;;;;;;;38.19;21.86;100176.09;1396228;92;20816;-87
2022/07/23 11:32:22;;;;;;;;;;;;;;;38.23;21.43;100179.78;1420429;91;20342;-92
2022/07/23 11:34:50;;;;;;;;;;;;;;;38.20;20.39;100168.61;1418394;90;20335;-93
2022/07/23 11:37:37;;;;;;;;;;;;;;;38.12;20.31;100165.61;1428208;91;20295;-90
2022/07/23 11:40:10;;;;;;;;;;;;;;;38.20;21.53;100163.89;1418283;90;20461;-92
2022/07/23 11:42:38;;;;;;;;;;;;;;;38.18;20.69;100162.61;1425893;91;20306;-90
2022/07/23 11:45:07;;;;;;;;;;;;;;;38.20;20.88;100157.56;1422816;91;20403;-89
2022/07/23 11:47:33;;;;;;;;;;;;;;;38.13;19.81;100150.63;1409615;91;20347;-89
2022/07/23 11:50:02;;;;;;;;;;;;;;;38.22;21.44;100147.78;1421961;91;20447;-91
2022/07/23 11:52:29;;;;;;;;;;;;;;;38.25;21.22;100154.59;1420892;91;20900;-90
2022/07/23 11:54:59;;;;;;;;;;;;;;;38.18;19.88;100147.41;1425076;91;20947;-90
2022/07/23 11:57:28;;;;;;;;;;;;;;;38.33;21.23;100148.17;1419450;91;20408;-90
2022/07/23 11:59:57;;;;;;;;;;;;;;;38.42;20.51;100153.64;1427077;91;20292;-89
2022/07/23 12:02:26;;;;;;;;;;;;;;;38.52;21.03;100145.69;1421247;91;20443;-90
2022/07/23 12:04:54;;;;;;;;;;;;;;;38.62;21.35;100142.27;1432934;90;20300;-89
2022/07/23 12:07:38;;;;;;;;;;;;;;;38.65;20.88;100137.44;1425045;91;20328;-89
2022/07/23 12:10:23;;;;;;;;;;;;;;;38.57;20.74;100133.62;1430460;91;20313;-90
2022/07/23 12:12:55;;;;;;;;;;;;;;;38.52;19.94;100131.87;1424624;91;20381;-90
2022/07/23 12:15:24;;;;;;;;;;;;;;;38.55;20.25;100132.56;1421120;90;20613;-92
2022/07/23 12:17:51;;;;;;;;;;;;;;;38.55;19.73;100135.33;1408827;91;20414;-90
2022/07/23 12:20:23;;;;;;;;;;;;;;;38.64;19.94;100126.93;1425360;90;20372;-90
2022/07/23 12:22:55;;;;;;;;;;;;;;;38.70;20.33;100128.34;1428347;90;20450;-90
2022/07/23 12:25:23;;;;;;;;;;;;;;;38.79;20.40;100126.85;1424011;90;20323;-92
2022/07/23 12:28:03;;;;;;;;;;;;;;;38.85;20.41;100121.31;1407207;91;20461;-89
2022/07/23 12:30:33;;;;;;;;;;;;;;;38.90;19.57;100127.20;1425881;91;20931;-90
2022/07/23 12:33:01;;;;;;;;;;;;;;;38.86;19.68;100130.45;1420159;91;21248;-92
2022/07/23 12:35:41;;;;;;;;;;;;;;;38.90;19.40;100112.83;1425953;90;20306;-90
2022/07/23 12:38:10;;;;;;;;;;;;;;;38.75;19.41;100108.73;1419290;91;20893;-91
2022/07/23 12:40:48;;;;;;;;;;;;;;;38.78;20.01;100113.57;1414787;91;20511;-91
2022/07/23 12:43:26;;;;;;;;;;;;;;;38.93;19.33;100107.98;1416799;91;20862;-91
2022/07/23 12:45:55;;;;;;;;;;;;;;;39.01;19.24;100106.23;1428179;91;20313;-92